sensor_id;sensor_type;location;lat;lon;timestamp;temperature;humidity
9762;DHT22;4920;49.594;11.022;2022-12-18T00:00:26;-10.70;99.90
9762;DHT22;4920;49.594;11.022;2022-12-18T00:02:57;-10.70;99.90
9762;DHT22;4920;49.594;11.022;2022-12-18T00:05:26;-10.70;99.90
9762;DHT22;4920;49.594;11.022;2022-12-18T00:07:54;-10.60;99.90
9762;DHT22;4920;49.594;11.022;2022-12-18T00:10:23;-10.60;99.90
9762;DHT22;4920;49.594;11.022;2022-12-18T00:12:52;-10.60;99.90
9762;DHT22;4920;49.594;11.022;2022-12-18T00:15:21;-10.60;99.90
9762;DHT22;4920;49.594;11.022;2022-12-18T00:17:50;-10.60;99.90
9762;DHT22;4920;49.594;11.022;2022-12-18T00:20:20;-10.60;99.90
9762;DHT22;4920;49.594;11.022;2022-12-18T00:22:53;-10.60;99.90
9762;DHT22;4920;49.594;11.022;2022-12-18T00:25:23;-10.70;99.90
9762;DHT22;4920;49.594;11.022;2022-12-18T00:27:51;-10.70;99.90
9762;DHT22;4920;49.594;11.022;2022-12-18T00:30:20;-10.70;99.90
9762;DHT22;4920;49.594;11.022;2022-12-18T00:32:49;-10.80;99.90
9762;DHT22;4920;49.594;11.022;2022-12-18T00:35:19;-10.80;99.90
9762;DHT22;4920;49.594;11.022;2022-12-18T00:37:48;-10.80;99.90
9762;DHT22;4920;49.594;11.022;2022-12-18T00:40:17;-10.80;99.90
9762;DHT22;4920;49.594;11.022;2022-12-18T00:42:46;-10.80;99.90
9762;DHT22;4920;49.594;11.022;2022-12-18T00:45:27;-10.80;99.90
9762;DHT22;4920;49.594;11.022;2022-12-18T00:47:57;-10.80;99.90
9762;DHT22;4920;49.594;11.022;2022-12-18T00:50:27;-10.80;99.90
9762;DHT22;4920;49.594;11.022;2022-12-18T00:52:56;-10.80;99.90
9762;DHT22;4920;49.594;11.022;2022-12-18T00:55:24;-10.80;99.90
9762;DHT22;4920;49.594;11.022;2022-12-18T00:57:54;-10.80;99.90
9762;DHT22;4920;49.594;11.022;2022-12-18T01:00:22;-10.90;99.90
9762;DHT22;4920;49.594;11.022;2022-12-18T01:02:52;-10.90;99.90
9762;DHT22;4920;49.594;11.022;2022-12-18T01:05:21;-10.90;99.90
9762;DHT22;4920;49.594;11.022;2022-12-18T01:07:52;-11.00;99.90
9762;DHT22;4920;49.594;11.022;2022-12-18T01:10:21;-11.10;99.90
9762;DHT22;4920;49.594;11.022;2022-12-18T01:12:50;-11.10;99.90
9762;DHT22;4920;49.594;11.022;2022-12-18T01:15:19;-11.10;99.90
9762;DHT22;4920;49.594;11.022;2022-12-18T01:17:48;-11.20;99.90
9762;DHT22;4920;49.594;11.022;2022-12-18T01:20:17;-11.20;99.90
9762;DHT22;4920;49.594;11.022;2022-12-18T01:22:46;-11.20;99.90
9762;DHT22;4920;49.594;11.022;2022-12-18T01:25:16;-11.10;99.90
9762;DHT22;4920;49.594;11.022;2022-12-18T01:27:45;-11.20;99.90
9762;DHT22;4920;49.594;11.022;2022-12-18T01:30:14;-11.20;99.90
9762;DHT22;4920;49.594;11.022;2022-12-18T01:32:43;-11.20;99.90
9762;DHT22;4920;49.594;11.022;2022-12-18T01:35:12;-11.20;99.90
9762;DHT22;4920;49.594;11.022;2022-12-18T01:37:41;-11.10;99.90
9762;DHT22;4920;49.594;11.022;2022-12-18T01:40:10;-11.10;99.90
9762;DHT22;4920;49.594;11.022;2022-12-18T01:42:40;-11.10;99.90
9762;DHT22;4920;49.594;11.022;2022-12-18T01:45:24;-11.10;99.90
9762;DHT22;4920;49.594;11.022;2022-12-18T01:47:55;-11.10;99.90
9762;DHT22;4920;49.594;11.022;2022-12-18T01:50:27;-11.10;99.90
9762;DHT22;4920;49.594;11.022;2022-12-18T01:53:00;-11.10;99.90
9762;DHT22;4920;49.594;11.022;2022-12-18T01:55:35;-11.10;99.90
9762;DHT22;4920;49.594;11.022;2022-12-18T01:58:06;-11.10;99.90
9762;DHT22;4920;49.594;11.022;2022-12-18T02:00:35;-11.10;99.90
9762;DHT22;4920;49.594;11.022;2022-12-18T02:03:04;-11.10;99.90
9762;DHT22;4920;49.594;11.022;2022-12-18T02:05:42;-11.10;99.90
9762;DHT22;4920;49.594;11.022;2022-12-18T02:08:16;-11.10;99.90
9762;DHT22;4920;49.594;11.022;2022-12-18T02:10:55;-11.00;99.90
9762;DHT22;4920;49.594;11.022;2022-12-18T02:13:32;-11.10;99.90
9762;DHT22;4920;49.594;11.022;2022-12-18T02:16:11;-11.00;99.90
9762;DHT22;4920;49.594;11.022;2022-12-18T02:18:45;-11.00;99.90
9762;DHT22;4920;49.594;11.022;2022-12-18T02:21:28;-11.00;99.90
9762;DHT22;4920;49.594;11.022;2022-12-18T02:24:16;-11.00;99.90
9762;DHT22;4920;49.594;11.022;2022-12-18T02:26:49;-11.10;99.90
9762;DHT22;4920;49.594;11.022;2022-12-18T02:29:25;-11.10;99.90
9762;DHT22;4920;49.594;11.022;2022-12-18T02:32:00;-11.10;99.90
9762;DHT22;4920;49.594;11.022;2022-12-18T02:34:32;-11.20;99.90
9762;DHT22;4920;49.594;11.022;2022-12-18T02:37:05;-11.20;99.90
9762;DHT22;4920;49.594;11.022;2022-12-18T02:39:38;-11.20;99.90
9762;DHT22;4920;49.594;11.022;2022-12-18T02:42:11;-11.20;99.90
9762;DHT22;4920;49.594;11.022;2022-12-18T02:44:44;-11.20;99.90
9762;DHT22;4920;49.594;11.022;2022-12-18T02:47:18;-11.10;99.90
9762;DHT22;4920;49.594;11.022;2022-12-18T02:49:55;-11.10;99.90
9762;DHT22;4920;49.594;11.022;2022-12-18T02:52:35;-11.00;99.90
9762;DHT22;4920;49.594;11.022;2022-12-18T02:55:16;-11.00;99.90
9762;DHT22;4920;49.594;11.022;2022-12-18T02:57:57;-11.00;99.90
9762;DHT22;4920;49.594;11.022;2022-12-18T03:00:35;-11.00;99.90
9762;DHT22;4920;49.594;11.022;2022-12-18T03:03:10;-11.00;99.90
9762;DHT22;4920;49.594;11.022;2022-12-18T03:05:44;-10.90;99.90
9762;DHT22;4920;49.594;11.022;2022-12-18T03:08:17;-11.00;99.90
9762;DHT22;4920;49.594;11.022;2022-12-18T03:10:51;-11.00;99.90
9762;DHT22;4920;49.594;11.022;2022-12-18T03:13:31;-10.90;99.90
9762;DHT22;4920;49.594;11.022;2022-12-18T03:16:02;-11.00;99.90
9762;DHT22;4920;49.594;11.022;2022-12-18T03:18:37;-11.00;99.90
9762;DHT22;4920;49.594;11.022;2022-12-18T03:21:08;-11.10;99.90
9762;DHT22;4920;49.594;11.022;2022-12-18T03:23:41;-11.10;99.90
9762;DHT22;4920;49.594;11.022;2022-12-18T03:26:15;-11.20;99.90
9762;DHT22;4920;49.594;11.022;2022-12-18T03:28:49;-11.30;99.90
9762;DHT22;4920;49.594;11.022;2022-12-18T03:31:21;-11.40;99.90
9762;DHT22;4920;49.594;11.022;2022-12-18T03:33:53;-11.40;99.90
9762;DHT22;4920;49.594;11.022;2022-12-18T03:36:32;-11.40;99.90
9762;DHT22;4920;49.594;11.022;2022-12-18T03:39:01;-11.40;99.90
9762;DHT22;4920;49.594;11.022;2022-12-18T03:41:40;-11.40;99.90
9762;DHT22;4920;49.594;11.022;2022-12-18T03:44:36;-11.40;99.90
9762;DHT22;4920;49.594;11.022;2022-12-18T03:47:09;-11.40;99.90
9762;DHT22;4920;49.594;11.022;2022-12-18T03:49:53;-11.40;99.90
9762;DHT22;4920;49.594;11.022;2022-12-18T03:52:27;-11.40;99.90
9762;DHT22;4920;49.594;11.022;2022-12-18T03:55:00;-11.40;99.90
9762;DHT22;4920;49.594;11.022;2022-12-18T03:57:32;-11.30;99.90
9762;DHT22;4920;49.594;11.022;2022-12-18T04:00:07;-11.20;99.90
9762;DHT22;4920;49.594;11.022;2022-12-18T04:03:09;-11.10;99.90
9762;DHT22;4920;49.594;11.022;2022-12-18T04:05:44;-10.90;99.90
9762;DHT22;4920;49.594;11.022;2022-12-18T04:08:16;-10.80;99.90
9762;DHT22;4920;49.594;11.022;2022-12-18T04:10:52;-10.70;99.90
9762;DHT22;4920;49.594;11.022;2022-12-18T04:13:22;-10.60;99.90
9762;DHT22;4920;49.594;11.022;2022-12-18T04:15:52;-10.50;99.90
9762;DHT22;4920;49.594;11.022;2022-12-18T04:18:23;-10.40;99.90
9762;DHT22;4920;49.594;11.022;2022-12-18T04:20:52;-10.30;99.90
9762;DHT22;4920;49.594;11.022;2022-12-18T04:23:22;-10.20;99.90
9762;DHT22;4920;49.594;11.022;2022-12-18T04:25:52;-10.10;99.90
9762;DHT22;4920;49.594;11.022;2022-12-18T04:28:35;-9.90;99.90
9762;DHT22;4920;49.594;11.022;2022-12-18T04:31:05;-9.90;99.90
9762;DHT22;4920;49.594;11.022;2022-12-18T04:33:35;-9.80;99.90
9762;DHT22;4920;49.594;11.022;2022-12-18T04:36:05;-9.80;99.90
9762;DHT22;4920;49.594;11.022;2022-12-18T04:38:34;-9.70;99.90
9762;DHT22;4920;49.594;11.022;2022-12-18T04:41:07;-9.60;99.90
9762;DHT22;4920;49.594;11.022;2022-12-18T04:43:36;-9.60;99.90
9762;DHT22;4920;49.594;11.022;2022-12-18T04:46:08;-9.50;99.90
9762;DHT22;4920;49.594;11.022;2022-12-18T04:48:37;-9.50;99.90
9762;DHT22;4920;49.594;11.022;2022-12-18T04:51:06;-9.40;99.90
9762;DHT22;4920;49.594;11.022;2022-12-18T04:53:35;-9.30;99.90
9762;DHT22;4920;49.594;11.022;2022-12-18T04:56:06;-9.20;99.90
9762;DHT22;4920;49.594;11.022;2022-12-18T04:58:35;-9.20;99.90
9762;DHT22;4920;49.594;11.022;2022-12-18T05:01:04;-9.20;99.90
9762;DHT22;4920;49.594;11.022;2022-12-18T05:03:34;-9.20;99.90
9762;DHT22;4920;49.594;11.022;2022-12-18T05:06:05;-9.20;99.90
9762;DHT22;4920;49.594;11.022;2022-12-18T05:08:35;-9.20;99.90
9762;DHT22;4920;49.594;11.022;2022-12-18T05:11:05;-9.20;99.90
9762;DHT22;4920;49.594;11.022;2022-12-18T05:13:34;-9.10;99.90
9762;DHT22;4920;49.594;11.022;2022-12-18T05:16:06;-9.10;99.90
9762;DHT22;4920;49.594;11.022;2022-12-18T05:18:37;-9.00;99.90
9762;DHT22;4920;49.594;11.022;2022-12-18T05:21:06;-8.90;99.90
9762;DHT22;4920;49.594;11.022;2022-12-18T05:23:34;-8.80;99.90
9762;DHT22;4920;49.594;11.022;2022-12-18T05:26:05;-8.70;99.90
9762;DHT22;4920;49.594;11.022;2022-12-18T05:28:36;-8.60;99.90
9762;DHT22;4920;49.594;11.022;2022-12-18T05:31:04;-8.50;99.90
9762;DHT22;4920;49.594;11.022;2022-12-18T05:33:36;-8.50;99.90
9762;DHT22;4920;49.594;11.022;2022-12-18T05:36:07;-8.40;99.90
9762;DHT22;4920;49.594;11.022;2022-12-18T05:38:38;-8.30;99.90
9762;DHT22;4920;49.594;11.022;2022-12-18T05:41:08;-8.20;99.90
9762;DHT22;4920;49.594;11.022;2022-12-18T05:43:38;-8.20;99.90
9762;DHT22;4920;49.594;11.022;2022-12-18T05:46:11;-8.20;99.90
9762;DHT22;4920;49.594;11.022;2022-12-18T05:48:42;-8.10;99.90
9762;DHT22;4920;49.594;11.022;2022-12-18T05:51:15;-8.00;99.90
9762;DHT22;4920;49.594;11.022;2022-12-18T05:53:44;-8.00;99.90
9762;DHT22;4920;49.594;11.022;2022-12-18T05:56:14;-8.00;99.90
9762;DHT22;4920;49.594;11.022;2022-12-18T05:58:43;-7.90;99.90
9762;DHT22;4920;49.594;11.022;2022-12-18T06:01:14;-7.90;99.90
9762;DHT22;4920;49.594;11.022;2022-12-18T06:03:45;-7.80;99.90
9762;DHT22;4920;49.594;11.022;2022-12-18T06:06:15;-7.80;99.90
9762;DHT22;4920;49.594;11.022;2022-12-18T06:08:45;-7.80;99.90
9762;DHT22;4920;49.594;11.022;2022-12-18T06:11:17;-7.80;99.90
9762;DHT22;4920;49.594;11.022;2022-12-18T06:13:49;-7.80;99.90
9762;DHT22;4920;49.594;11.022;2022-12-18T06:16:24;-7.80;99.90
9762;DHT22;4920;49.594;11.022;2022-12-18T06:18:56;-7.70;99.90
9762;DHT22;4920;49.594;11.022;2022-12-18T06:21:26;-7.70;99.90
9762;DHT22;4920;49.594;11.022;2022-12-18T06:23:55;-7.60;99.90
9762;DHT22;4920;49.594;11.022;2022-12-18T06:26:24;-7.50;99.90
9762;DHT22;4920;49.594;11.022;2022-12-18T06:28:55;-7.50;99.90
9762;DHT22;4920;49.594;11.022;2022-12-18T06:31:24;-7.40;99.90
9762;DHT22;4920;49.594;11.022;2022-12-18T06:33:55;-7.40;99.90
9762;DHT22;4920;49.594;11.022;2022-12-18T06:36:24;-7.30;99.90
9762;DHT22;4920;49.594;11.022;2022-12-18T06:38:52;-7.20;99.90
9762;DHT22;4920;49.594;11.022;2022-12-18T06:41:22;-7.20;99.90
9762;DHT22;4920;49.594;11.022;2022-12-18T06:43:50;-7.20;99.90
9762;DHT22;4920;49.594;11.022;2022-12-18T06:46:25;-7.20;99.90
9762;DHT22;4920;49.594;11.022;2022-12-18T06:48:55;-7.20;99.90
9762;DHT22;4920;49.594;11.022;2022-12-18T06:51:24;-7.10;99.90
9762;DHT22;4920;49.594;11.022;2022-12-18T06:53:53;-7.10;99.90
9762;DHT22;4920;49.594;11.022;2022-12-18T06:56:22;-7.00;99.90
9762;DHT22;4920;49.594;11.022;2022-12-18T06:58:51;-7.00;99.90
9762;DHT22;4920;49.594;11.022;2022-12-18T07:01:20;-7.00;99.90
9762;DHT22;4920;49.594;11.022;2022-12-18T07:03:52;-6.90;99.90
9762;DHT22;4920;49.594;11.022;2022-12-18T07:06:24;-6.90;99.90
9762;DHT22;4920;49.594;11.022;2022-12-18T07:08:54;-6.80;99.90
9762;DHT22;4920;49.594;11.022;2022-12-18T07:11:23;-6.80;99.90
9762;DHT22;4920;49.594;11.022;2022-12-18T07:13:53;-6.70;99.90
9762;DHT22;4920;49.594;11.022;2022-12-18T07:16:22;-6.60;99.90
9762;DHT22;4920;49.594;11.022;2022-12-18T07:18:52;-6.60;99.90
9762;DHT22;4920;49.594;11.022;2022-12-18T07:21:24;-6.60;99.90
9762;DHT22;4920;49.594;11.022;2022-12-18T07:23:53;-6.50;99.90
9762;DHT22;4920;49.594;11.022;2022-12-18T07:26:22;-6.40;99.90
9762;DHT22;4920;49.594;11.022;2022-12-18T07:28:54;-6.40;99.90
9762;DHT22;4920;49.594;11.022;2022-12-18T07:31:23;-6.40;99.90
9762;DHT22;4920;49.594;11.022;2022-12-18T07:33:52;-6.30;99.90
9762;DHT22;4920;49.594;11.022;2022-12-18T07:36:21;-6.20;99.90
9762;DHT22;4920;49.594;11.022;2022-12-18T07:38:51;-6.20;99.90
9762;DHT22;4920;49.594;11.022;2022-12-18T07:41:20;-6.00;99.90
9762;DHT22;4920;49.594;11.022;2022-12-18T07:43:49;-6.00;99.90
9762;DHT22;4920;49.594;11.022;2022-12-18T07:46:18;-5.90;99.90
9762;DHT22;4920;49.594;11.022;2022-12-18T07:48:47;-5.80;99.90
9762;DHT22;4920;49.594;11.022;2022-12-18T07:51:17;-5.70;99.90
9762;DHT22;4920;49.594;11.022;2022-12-18T07:53:47;-5.60;99.90
9762;DHT22;4920;49.594;11.022;2022-12-18T07:56:20;-5.50;99.90
9762;DHT22;4920;49.594;11.022;2022-12-18T07:58:55;-5.40;99.90
9762;DHT22;4920;49.594;11.022;2022-12-18T08:01:24;-5.30;99.90
9762;DHT22;4920;49.594;11.022;2022-12-18T08:03:53;-5.20;99.90
9762;DHT22;4920;49.594;11.022;2022-12-18T08:06:22;-5.10;99.90
9762;DHT22;4920;49.594;11.022;2022-12-18T08:08:52;-5.00;99.90
9762;DHT22;4920;49.594;11.022;2022-12-18T08:11:24;-5.00;99.90
9762;DHT22;4920;49.594;11.022;2022-12-18T08:13:54;-4.90;99.90
9762;DHT22;4920;49.594;11.022;2022-12-18T08:16:23;-4.80;99.90
9762;DHT22;4920;49.594;11.022;2022-12-18T08:18:53;-4.70;99.90
9762;DHT22;4920;49.594;11.022;2022-12-18T08:21:23;-4.60;99.90
9762;DHT22;4920;49.594;11.022;2022-12-18T08:23:54;-4.50;99.90
9762;DHT22;4920;49.594;11.022;2022-12-18T08:26:26;-4.40;99.90
9762;DHT22;4920;49.594;11.022;2022-12-18T08:28:58;-4.30;99.90
9762;DHT22;4920;49.594;11.022;2022-12-18T08:31:28;-4.20;99.90
9762;DHT22;4920;49.594;11.022;2022-12-18T08:33:57;-4.10;99.90
9762;DHT22;4920;49.594;11.022;2022-12-18T08:36:26;-4.00;99.90
9762;DHT22;4920;49.594;11.022;2022-12-18T08:38:54;-4.00;99.90
9762;DHT22;4920;49.594;11.022;2022-12-18T08:41:26;-3.90;99.90
9762;DHT22;4920;49.594;11.022;2022-12-18T08:43:55;-3.80;99.90
9762;DHT22;4920;49.594;11.022;2022-12-18T08:46:42;-3.70;99.90
9762;DHT22;4920;49.594;11.022;2022-12-18T08:49:12;-3.60;99.90
9762;DHT22;4920;49.594;11.022;2022-12-18T08:51:41;-3.50;99.90
9762;DHT22;4920;49.594;11.022;2022-12-18T08:54:11;-3.50;99.90
9762;DHT22;4920;49.594;11.022;2022-12-18T08:56:41;-3.40;99.90
9762;DHT22;4920;49.594;11.022;2022-12-18T08:59:10;-3.30;99.90
9762;DHT22;4920;49.594;11.022;2022-12-18T09:01:47;-3.20;99.90
9762;DHT22;4920;49.594;11.022;2022-12-18T09:04:16;-3.10;99.90
9762;DHT22;4920;49.594;11.022;2022-12-18T09:06:45;-3.00;99.90
9762;DHT22;4920;49.594;11.022;2022-12-18T09:09:14;-3.00;99.90
9762;DHT22;4920;49.594;11.022;2022-12-18T09:11:44;-2.90;99.90
9762;DHT22;4920;49.594;11.022;2022-12-18T09:14:12;-2.90;99.90
9762;DHT22;4920;49.594;11.022;2022-12-18T09:16:41;-2.80;99.90
9762;DHT22;4920;49.594;11.022;2022-12-18T09:19:10;-2.80;99.90
9762;DHT22;4920;49.594;11.022;2022-12-18T09:21:39;-2.70;99.90
9762;DHT22;4920;49.594;11.022;2022-12-18T09:24:14;-2.60;99.90
9762;DHT22;4920;49.594;11.022;2022-12-18T09:26:44;-2.40;99.90
9762;DHT22;4920;49.594;11.022;2022-12-18T09:29:14;-2.30;99.90
9762;DHT22;4920;49.594;11.022;2022-12-18T09:31:45;-2.10;99.90
9762;DHT22;4920;49.594;11.022;2022-12-18T09:34:14;-2.00;99.90
9762;DHT22;4920;49.594;11.022;2022-12-18T09:36:43;-1.90;99.90
9762;DHT22;4920;49.594;11.022;2022-12-18T09:39:13;-1.80;99.90
9762;DHT22;4920;49.594;11.022;2022-12-18T09:41:46;-1.80;99.90
9762;DHT22;4920;49.594;11.022;2022-12-18T09:44:24;-1.70;99.90
9762;DHT22;4920;49.594;11.022;2022-12-18T09:47:06;-1.60;99.90
9762;DHT22;4920;49.594;11.022;2022-12-18T09:49:40;-1.50;99.90
9762;DHT22;4920;49.594;11.022;2022-12-18T09:52:14;-1.30;99.90
9762;DHT22;4920;49.594;11.022;2022-12-18T09:54:46;-1.20;99.90
9762;DHT22;4920;49.594;11.022;2022-12-18T09:57:20;-1.10;99.90
9762;DHT22;4920;49.594;11.022;2022-12-18T09:59:53;-1.00;99.90
9762;DHT22;4920;49.594;11.022;2022-12-18T10:02:24;-0.90;99.90
9762;DHT22;4920;49.594;11.022;2022-12-18T10:05:02;-0.90;99.90
9762;DHT22;4920;49.594;11.022;2022-12-18T10:07:43;-0.70;99.90
9762;DHT22;4920;49.594;11.022;2022-12-18T10:10:23;-0.60;99.90
9762;DHT22;4920;49.594;11.022;2022-12-18T10:13:02;-0.60;99.90
9762;DHT22;4920;49.594;11.022;2022-12-18T10:15:41;-0.60;99.90
9762;DHT22;4920;49.594;11.022;2022-12-18T10:18:22;-0.70;99.90
9762;DHT22;4920;49.594;11.022;2022-12-18T10:20:54;-0.70;99.90
9762;DHT22;4920;49.594;11.022;2022-12-18T10:23:28;-0.80;99.90
9762;DHT22;4920;49.594;11.022;2022-12-18T10:26:02;-0.90;99.90
9762;DHT22;4920;49.594;11.022;2022-12-18T10:28:35;-1.00;99.90
9762;DHT22;4920;49.594;11.022;2022-12-18T10:31:05;-1.10;99.90
9762;DHT22;4920;49.594;11.022;2022-12-18T10:33:34;-1.20;99.90
9762;DHT22;4920;49.594;11.022;2022-12-18T10:36:03;-1.30;99.90
9762;DHT22;4920;49.594;11.022;2022-12-18T10:38:33;-1.30;99.90
9762;DHT22;4920;49.594;11.022;2022-12-18T10:41:03;-1.20;99.90
9762;DHT22;4920;49.594;11.022;2022-12-18T10:43:35;-1.10;99.90
9762;DHT22;4920;49.594;11.022;2022-12-18T10:46:12;-0.90;99.90
9762;DHT22;4920;49.594;11.022;2022-12-18T10:48:52;-0.70;99.90
9762;DHT22;4920;49.594;11.022;2022-12-18T10:51:24;-0.60;99.90
9762;DHT22;4920;49.594;11.022;2022-12-18T10:53:59;-0.60;99.90
9762;DHT22;4920;49.594;11.022;2022-12-18T10:56:31;-0.50;99.90
9762;DHT22;4920;49.594;11.022;2022-12-18T10:59:05;-0.30;99.90
9762;DHT22;4920;49.594;11.022;2022-12-18T11:01:46;-0.10;99.90
9762;DHT22;4920;49.594;11.022;2022-12-18T11:04:18;0.10;99.90
9762;DHT22;4920;49.594;11.022;2022-12-18T11:06:55;0.30;99.90
9762;DHT22;4920;49.594;11.022;2022-12-18T11:09:25;0.40;99.90
9762;DHT22;4920;49.594;11.022;2022-12-18T11:11:56;0.70;99.90
9762;DHT22;4920;49.594;11.022;2022-12-18T11:14:29;0.90;99.90
9762;DHT22;4920;49.594;11.022;2022-12-18T11:17:00;1.10;99.90
9762;DHT22;4920;49.594;11.022;2022-12-18T11:19:53;1.20;99.90
9762;DHT22;4920;49.594;11.022;2022-12-18T11:22:25;1.10;99.90
9762;DHT22;4920;49.594;11.022;2022-12-18T11:24:57;0.90;99.90
9762;DHT22;4920;49.594;11.022;2022-12-18T11:27:48;0.70;99.90
9762;DHT22;4920;49.594;11.022;2022-12-18T11:30:23;0.80;99.90
9762;DHT22;4920;49.594;11.022;2022-12-18T11:32:55;0.90;99.90
9762;DHT22;4920;49.594;11.022;2022-12-18T11:35:32;1.00;99.90
9762;DHT22;4920;49.594;11.022;2022-12-18T11:38:10;1.10;99.90
9762;DHT22;4920;49.594;11.022;2022-12-18T11:40:43;1.20;99.90
9762;DHT22;4920;49.594;11.022;2022-12-18T11:43:16;1.40;99.90
9762;DHT22;4920;49.594;11.022;2022-12-18T11:45:51;1.60;99.90
9762;DHT22;4920;49.594;11.022;2022-12-18T11:48:24;1.80;99.90
9762;DHT22;4920;49.594;11.022;2022-12-18T11:50:55;2.00;99.90
9762;DHT22;4920;49.594;11.022;2022-12-18T11:53:26;2.10;99.90
9762;DHT22;4920;49.594;11.022;2022-12-18T11:56:18;2.30;99.90
9762;DHT22;4920;49.594;11.022;2022-12-18T11:59:03;2.40;99.90
9762;DHT22;4920;49.594;11.022;2022-12-18T12:01:43;2.40;99.90
9762;DHT22;4920;49.594;11.022;2022-12-18T12:04:30;2.30;99.90
9762;DHT22;4920;49.594;11.022;2022-12-18T12:07:15;2.20;99.90
9762;DHT22;4920;49.594;11.022;2022-12-18T12:09:52;2.00;99.90
9762;DHT22;4920;49.594;11.022;2022-12-18T12:12:31;1.90;99.90
9762;DHT22;4920;49.594;11.022;2022-12-18T12:15:22;1.80;99.90
9762;DHT22;4920;49.594;11.022;2022-12-18T12:18:01;1.70;99.90
9762;DHT22;4920;49.594;11.022;2022-12-18T12:20:45;1.70;99.90
9762;DHT22;4920;49.594;11.022;2022-12-18T12:23:22;1.60;99.90
9762;DHT22;4920;49.594;11.022;2022-12-18T12:26:08;1.50;99.90
9762;DHT22;4920;49.594;11.022;2022-12-18T12:28:53;1.50;99.90
9762;DHT22;4920;49.594;11.022;2022-12-18T12:31:37;1.50;99.90
9762;DHT22;4920;49.594;11.022;2022-12-18T12:34:16;1.50;99.90
9762;DHT22;4920;49.594;11.022;2022-12-18T12:36:57;1.60;99.90
9762;DHT22;4920;49.594;11.022;2022-12-18T12:39:32;1.50;99.90
9762;DHT22;4920;49.594;11.022;2022-12-18T12:42:04;1.50;99.90
9762;DHT22;4920;49.594;11.022;2022-12-18T12:44:54;1.50;99.90
9762;DHT22;4920;49.594;11.022;2022-12-18T12:47:28;1.50;99.90
9762;DHT22;4920;49.594;11.022;2022-12-18T12:50:03;1.50;99.90
9762;DHT22;4920;49.594;11.022;2022-12-18T12:52:37;1.50;99.90
9762;DHT22;4920;49.594;11.022;2022-12-18T12:55:14;1.60;99.90
9762;DHT22;4920;49.594;11.022;2022-12-18T12:57:50;1.70;99.90
9762;DHT22;4920;49.594;11.022;2022-12-18T13:00:22;1.70;99.90
9762;DHT22;4920;49.594;11.022;2022-12-18T13:02:59;1.80;99.90
9762;DHT22;4920;49.594;11.022;2022-12-18T13:05:38;1.80;99.90
9762;DHT22;4920;49.594;11.022;2022-12-18T13:08:10;1.80;99.90
9762;DHT22;4920;49.594;11.022;2022-12-18T13:10:41;1.80;99.90
9762;DHT22;4920;49.594;11.022;2022-12-18T13:13:11;1.80;99.90
9762;DHT22;4920;49.594;11.022;2022-12-18T13:15:44;1.80;99.90
9762;DHT22;4920;49.594;11.022;2022-12-18T13:18:18;1.90;99.90
9762;DHT22;4920;49.594;11.022;2022-12-18T13:21:00;1.90;99.90
9762;DHT22;4920;49.594;11.022;2022-12-18T13:23:33;1.80;99.90
9762;DHT22;4920;49.594;11.022;2022-12-18T13:26:29;1.60;99.90
9762;DHT22;4920;49.594;11.022;2022-12-18T13:29:00;1.50;99.90
9762;DHT22;4920;49.594;11.022;2022-12-18T13:34:36;1.20;99.90
9762;DHT22;4920;49.594;11.022;2022-12-18T13:37:38;1.10;99.90
9762;DHT22;4920;49.594;11.022;2022-12-18T13:43:27;1.00;99.90
9762;DHT22;4920;49.594;11.022;2022-12-18T13:46:18;0.90;99.90
9762;DHT22;4920;49.594;11.022;2022-12-18T13:48:53;0.80;99.90
9762;DHT22;4920;49.594;11.022;2022-12-18T13:51:24;0.70;99.90
9762;DHT22;4920;49.594;11.022;2022-12-18T13:53:58;0.70;99.90
9762;DHT22;4920;49.594;11.022;2022-12-18T13:56:30;0.70;99.90
9762;DHT22;4920;49.594;11.022;2022-12-18T13:59:24;0.60;99.90
9762;DHT22;4920;49.594;11.022;2022-12-18T14:01:55;0.50;99.90
9762;DHT22;4920;49.594;11.022;2022-12-18T14:04:27;0.40;99.90
9762;DHT22;4920;49.594;11.022;2022-12-18T14:06:58;0.20;99.90
9762;DHT22;4920;49.594;11.022;2022-12-18T14:09:35;0.10;99.90
9762;DHT22;4920;49.594;11.022;2022-12-18T14:12:11;0.00;99.90
9762;DHT22;4920;49.594;11.022;2022-12-18T14:15:00;-0.10;99.90
9762;DHT22;4920;49.594;11.022;2022-12-18T14:17:30;-0.10;99.90
9762;DHT22;4920;49.594;11.022;2022-12-18T14:20:00;-0.20;99.90
9762;DHT22;4920;49.594;11.022;2022-12-18T14:22:30;-0.30;99.90
9762;DHT22;4920;49.594;11.022;2022-12-18T14:25:14;-0.40;99.90
9762;DHT22;4920;49.594;11.022;2022-12-18T14:27:45;-0.40;99.90
9762;DHT22;4920;49.594;11.022;2022-12-18T14:30:29;-0.50;99.90
9762;DHT22;4920;49.594;11.022;2022-12-18T14:33:29;-0.60;99.90
9762;DHT22;4920;49.594;11.022;2022-12-18T14:35:59;-0.60;99.90
9762;DHT22;4920;49.594;11.022;2022-12-18T14:38:30;-0.70;99.90
9762;DHT22;4920;49.594;11.022;2022-12-18T14:41:04;-0.70;99.90
9762;DHT22;4920;49.594;11.022;2022-12-18T14:43:34;-0.80;99.90
9762;DHT22;4920;49.594;11.022;2022-12-18T14:46:04;-0.90;99.90
9762;DHT22;4920;49.594;11.022;2022-12-18T14:48:36;-1.00;99.90
9762;DHT22;4920;49.594;11.022;2022-12-18T14:51:14;-1.10;99.90
9762;DHT22;4920;49.594;11.022;2022-12-18T14:53:46;-1.20;99.90
9762;DHT22;4920;49.594;11.022;2022-12-18T14:56:24;-1.30;99.90
9762;DHT22;4920;49.594;11.022;2022-12-18T14:59:24;-1.40;99.90
9762;DHT22;4920;49.594;11.022;2022-12-18T15:02:00;-1.50;99.90
9762;DHT22;4920;49.594;11.022;2022-12-18T15:04:33;-1.60;99.90
9762;DHT22;4920;49.594;11.022;2022-12-18T15:07:14;-1.70;99.90
9762;DHT22;4920;49.594;11.022;2022-12-18T15:10:01;-1.90;99.90
9762;DHT22;4920;49.594;11.022;2022-12-18T15:12:35;-2.00;99.90
9762;DHT22;4920;49.594;11.022;2022-12-18T15:15:05;-2.10;99.90
9762;DHT22;4920;49.594;11.022;2022-12-18T15:17:57;-2.20;99.90
9762;DHT22;4920;49.594;11.022;2022-12-18T15:20:26;-2.30;99.90
9762;DHT22;4920;49.594;11.022;2022-12-18T15:22:54;-2.40;99.90
9762;DHT22;4920;49.594;11.022;2022-12-18T15:25:27;-2.50;99.90
9762;DHT22;4920;49.594;11.022;2022-12-18T15:28:00;-2.60;99.90
9762;DHT22;4920;49.594;11.022;2022-12-18T15:30:30;-2.60;99.90
9762;DHT22;4920;49.594;11.022;2022-12-18T15:33:22;-2.70;99.90
9762;DHT22;4920;49.594;11.022;2022-12-18T15:35:56;-2.70;99.90
9762;DHT22;4920;49.594;11.022;2022-12-18T15:38:25;-2.70;99.90
9762;DHT22;4920;49.594;11.022;2022-12-18T15:40:54;-2.80;99.90
9762;DHT22;4920;49.594;11.022;2022-12-18T15:43:26;-2.80;99.90
9762;DHT22;4920;49.594;11.022;2022-12-18T15:46:05;-2.90;99.90
9762;DHT22;4920;49.594;11.022;2022-12-18T15:48:39;-2.90;99.90
9762;DHT22;4920;49.594;11.022;2022-12-18T15:51:13;-2.90;99.90
9762;DHT22;4920;49.594;11.022;2022-12-18T15:53:43;-3.00;99.90
9762;DHT22;4920;49.594;11.022;2022-12-18T15:56:13;-3.00;99.90
9762;DHT22;4920;49.594;11.022;2022-12-18T15:59:01;-3.00;99.90
9762;DHT22;4920;49.594;11.022;2022-12-18T16:02:00;-3.00;99.90
9762;DHT22;4920;49.594;11.022;2022-12-18T16:04:29;-3.00;99.90
9762;DHT22;4920;49.594;11.022;2022-12-18T16:06:58;-3.10;99.90
9762;DHT22;4920;49.594;11.022;2022-12-18T16:09:48;-3.10;99.90
9762;DHT22;4920;49.594;11.022;2022-12-18T16:12:19;-3.10;99.90
9762;DHT22;4920;49.594;11.022;2022-12-18T16:14:50;-3.20;99.90
9762;DHT22;4920;49.594;11.022;2022-12-18T16:17:19;-3.20;99.90
9762;DHT22;4920;49.594;11.022;2022-12-18T16:19:48;-3.20;99.90
9762;DHT22;4920;49.594;11.022;2022-12-18T16:22:20;-3.30;99.90
9762;DHT22;4920;49.594;11.022;2022-12-18T16:24:49;-3.30;99.90
9762;DHT22;4920;49.594;11.022;2022-12-18T16:27:18;-3.30;99.90
9762;DHT22;4920;49.594;11.022;2022-12-18T16:29:47;-3.30;99.90